Austin, Minnesota
Current Conditions -  °F | °C
As of 1:36 PM on Sunday 23 Nov 2014 (Local Time) from KAUM Reporting Station
Drizzle Drizzle  
Wind Chill: 48°   Ceiling: 200
Heat Index: 48°   Visibility: 0mi
Dew Point: 48°   Wind: 3mph
Humidity: 100%   Direction: 170°S
Pressure: 29.37"   Gusts: NA
Location:  43.67°N, 92.97°W
Report Text: KAUM 231936Z AUTO 17003KT M1/4SM -DZ OVC002 09/09 A2937 RMK AO2
Loading
Personal Weather Stations






























Interactive Weather Map New forecast layout! Learn more

10-Day Weather Forecast

Advertisements
Track Severe Weather on mobile